Time;durP1;ratioP1;P1;durP2;ratioP2;P2;SDS_P1;SDS_P2;PMS_P1;PMS_P2;Temp;Humidity;BMP_temperature;BMP_pressure;BME280_temperature;BME280_humidity;BME280_pressure;Samples;Min_cycle;Max_cycle;Signal;HPM_P1;HPM_P2
2024/03/01 00:01:20;;;;;;;11.93;7.63;;;8.70;99.90;;;;;;7370035;19;20045;-71
2024/03/01 00:03:47;;;;;;;12.45;7.30;;;8.60;99.90;;;;;;7368774;19;20041;-70
2024/03/01 00:06:14;;;;;;;11.70;7.97;;;8.60;99.90;;;;;;7370672;19;20474;-70
2024/03/01 00:08:40;;;;;;;10.25;7.70;;;8.60;99.90;;;;;;7374441;19;20023;-70
2024/03/01 00:11:08;;;;;;;10.20;7.53;;;8.60;99.90;;;;;;7379092;19;20014;-70
2024/03/01 00:13:35;;;;;;;10.15;7.93;;;8.60;99.90;;;;;;7381546;19;20107;-70
2024/03/01 00:16:01;;;;;;;9.88;7.40;;;8.70;99.90;;;;;;7377575;19;20078;-70
2024/03/01 00:18:31;;;;;;;9.00;7.07;;;8.70;99.90;;;;;;7375437;19;20873;-70
2024/03/01 00:20:59;;;;;;;10.82;7.72;;;8.70;99.90;;;;;;7368440;19;20368;-70
2024/03/01 00:23:26;;;;;;;11.18;7.38;;;8.70;99.90;;;;;;7371306;19;20093;-70
2024/03/01 00:25:55;;;;;;;10.07;7.45;;;8.70;99.90;;;;;;7373257;19;20018;-69
2024/03/01 00:28:21;;;;;;;8.77;6.45;;;8.70;99.90;;;;;;7374069;19;20533;-70
2024/03/01 00:30:48;;;;;;;10.90;6.85;;;8.70;99.90;;;;;;7367447;19;20019;-71
2024/03/01 00:33:15;;;;;;;9.70;6.93;;;8.80;99.90;;;;;;7367944;19;20029;-70
2024/03/01 00:35:42;;;;;;;10.10;6.68;;;8.80;99.90;;;;;;7372403;19;20019;-70
2024/03/01 00:38:09;;;;;;;8.38;6.03;;;8.80;99.90;;;;;;7379314;19;20689;-70
2024/03/01 00:40:37;;;;;;;9.43;6.35;;;8.80;99.90;;;;;;7375898;19;20014;-70
2024/03/01 00:43:06;;;;;;;7.88;5.85;;;8.80;99.90;;;;;;7371411;19;20025;-70
2024/03/01 00:45:37;;;;;;;7.93;6.30;;;8.80;99.90;;;;;;7373621;19;20041;-70
2024/03/01 00:48:09;;;;;;;;;;;8.80;99.90;;;;;;7372427;19;20717;-70
2024/03/01 00:50:39;;;;;;;11.27;6.70;;;8.80;99.90;;;;;;7378772;19;19927;-70
2024/03/01 00:53:11;;;;;;;8.98;6.35;;;8.80;99.90;;;;;;7376826;19;20068;-70
2024/03/01 00:55:39;;;;;;;9.15;6.30;;;8.80;99.90;;;;;;7379445;19;20014;-70
2024/03/01 00:58:07;;;;;;;7.68;6.38;;;8.80;99.90;;;;;;7378979;19;20478;-70
2024/03/01 01:00:35;;;;;;;8.65;6.35;;;8.80;99.90;;;;;;7373065;19;20093;-70
2024/03/01 01:03:03;;;;;;;9.30;6.40;;;8.90;99.90;;;;;;7384169;19;20015;-70
2024/03/01 01:05:31;;;;;;;8.43;6.00;;;8.90;99.90;;;;;;7377191;19;20024;-70
2024/03/01 01:07:58;;;;;;;9.95;6.28;;;8.90;99.90;;;;;;7383824;19;20370;-70
2024/03/01 01:10:25;;;;;;;7.75;6.25;;;8.80;99.90;;;;;;7381173;19;20022;-70
2024/03/01 01:12:51;;;;;;;9.98;6.28;;;8.80;99.90;;;;;;7384374;19;20023;-71
2024/03/01 01:15:36;;;;;;;8.93;6.10;;;8.80;99.90;;;;;;7380059;19;20018;-71
2024/03/01 01:18:03;;;;;;;9.05;6.40;;;8.80;99.90;;;;;;7371583;19;20055;-70
2024/03/01 01:20:30;;;;;;;7.68;5.60;;;8.80;99.90;;;;;;7372525;19;20019;-70
2024/03/01 01:22:56;;;;;;;8.68;5.78;;;8.80;99.90;;;;;;7375972;19;20033;-70
2024/03/01 01:25:23;;;;;;;9.73;7.05;;;8.90;99.90;;;;;;7374310;19;20018;-70
2024/03/01 01:27:53;;;;;;;9.82;6.45;;;8.90;99.90;;;;;;7377183;19;20194;-70
2024/03/01 01:30:21;;;;;;;9.13;6.15;;;8.80;99.90;;;;;;7374421;19;20022;-69
2024/03/01 01:32:48;;;;;;;8.07;6.05;;;8.80;99.90;;;;;;7372198;19;20022;-70
2024/03/01 01:35:15;;;;;;;11.38;6.93;;;8.90;99.90;;;;;;7382213;19;20074;-70
2024/03/01 01:37:41;;;;;;;9.30;5.93;;;8.80;99.90;;;;;;7376357;19;20066;-70
2024/03/01 01:40:08;;;;;;;7.93;6.18;;;8.80;99.90;;;;;;7377917;19;20434;-70
2024/03/01 01:42:35;;;;;;;10.32;7.47;;;8.80;99.90;;;;;;7381289;19;20049;-70
2024/03/01 01:45:02;;;;;;;11.13;6.47;;;8.80;99.90;;;;;;7381069;19;20102;-70
2024/03/01 01:47:29;;;;;;;9.60;7.00;;;8.80;99.90;;;;;;7381390;19;20059;-69
2024/03/01 01:49:57;;;;;;;8.75;6.68;;;8.80;99.90;;;;;;7383869;19;20022;-70
2024/03/01 01:52:25;;;;;;;9.88;6.82;;;8.80;99.90;;;;;;7381536;19;20023;-70
2024/03/01 01:54:52;;;;;;;9.13;6.93;;;8.70;99.90;;;;;;7384612;19;20022;-69
2024/03/01 01:57:21;;;;;;;9.15;6.72;;;8.70;99.90;;;;;;7368151;19;20018;-69
2024/03/01 01:59:51;;;;;;;9.18;6.47;;;8.80;99.90;;;;;;7381450;19;20058;-69
2024/03/01 02:02:22;;;;;;;8.65;6.28;;;8.70;99.90;;;;;;7371578;19;20026;-69
2024/03/01 02:04:50;;;;;;;10.05;6.80;;;8.70;99.90;;;;;;7379033;19;20043;-69
2024/03/01 02:07:17;;;;;;;9.73;6.82;;;8.70;99.90;;;;;;7376277;19;20374;-69
2024/03/01 02:09:46;;;;;;;9.48;6.30;;;8.70;99.90;;;;;;7379348;19;20015;-70
2024/03/01 02:12:24;;;;;;;11.15;6.88;;;8.70;99.90;;;;;;7372730;19;20737;-70
2024/03/01 02:14:53;;;;;;;9.10;6.72;;;8.70;99.90;;;;;;7373144;19;20074;-70
2024/03/01 02:17:24;;;;;;;9.65;6.90;;;8.70;99.90;;;;;;7379511;19;20013;-70
2024/03/01 02:20:06;;;;;;;11.85;6.90;;;8.70;99.90;;;;;;7383760;19;20018;-70
2024/03/01 02:22:36;;;;;;;8.80;6.35;;;8.60;99.90;;;;;;7385061;19;20016;-70
2024/03/01 02:25:04;;;;;;;8.80;6.57;;;8.70;99.90;;;;;;7381643;19;20118;-70
2024/03/01 02:27:32;;;;;;;11.85;7.70;;;8.70;99.90;;;;;;7374589;19;20011;-70
2024/03/01 02:30:00;;;;;;;10.20;6.93;;;8.60;99.90;;;;;;7370001;19;20020;-70
2024/03/01 02:32:26;;;;;;;12.70;8.00;;;8.60;99.90;;;;;;7382131;19;20471;-71
2024/03/01 02:34:53;;;;;;;10.57;7.50;;;8.70;99.90;;;;;;7372109;19;20074;-71
2024/03/01 02:37:21;;;;;;;11.32;8.07;;;8.70;99.90;;;;;;7372826;19;20086;-70
2024/03/01 02:39:47;;;;;;;11.52;8.10;;;8.70;99.90;;;;;;7375515;19;20090;-70
2024/03/01 02:42:14;;;;;;;10.68;8.15;;;8.70;99.90;;;;;;7377225;19;20641;-71
2024/03/01 02:44:40;;;;;;;11.57;7.90;;;8.60;99.90;;;;;;7379258;19;20022;-70
2024/03/01 02:47:06;;;;;;;11.55;8.35;;;8.60;99.90;;;;;;7373159;19;20022;-70
2024/03/01 02:49:33;;;;;;;11.65;8.35;;;8.70;99.90;;;;;;7373531;19;20601;-70
2024/03/01 02:51:59;;;;;;;12.27;8.90;;;8.70;99.90;;;;;;7371549;19;20118;-70
2024/03/01 02:54:26;;;;;;;11.63;8.48;;;8.70;99.90;;;;;;7376670;19;20429;-70
2024/03/01 02:56:53;;;;;;;10.20;8.15;;;8.60;99.90;;;;;;7377214;19;20030;-70
2024/03/01 02:59:19;;;;;;;12.40;8.80;;;8.60;99.90;;;;;;7367094;19;20018;-70
2024/03/01 03:01:45;;;;;;;10.70;8.85;;;8.60;99.90;;;;;;7370387;19;20684;-70
2024/03/01 03:04:12;;;;;;;13.20;9.05;;;8.70;99.90;;;;;;7372573;19;20018;-70
2024/03/01 03:06:38;;;;;;;11.77;8.60;;;8.70;99.90;;;;;;7371822;19;20037;-70
2024/03/01 03:09:09;;;;;;;14.23;9.25;;;8.70;99.90;;;;;;7372800;19;20006;-69
2024/03/01 03:11:36;;;;;;;11.15;8.68;;;8.70;99.90;;;;;;7378671;19;20029;-70
2024/03/01 03:14:03;;;;;;;12.30;8.95;;;8.70;99.90;;;;;;7377615;19;20074;-71
2024/03/01 03:16:29;;;;;;;11.95;8.93;;;8.70;99.90;;;;;;7382187;19;20015;-70
2024/03/01 03:18:55;;;;;;;11.52;8.63;;;8.70;99.90;;;;;;7381990;19;20529;-70
2024/03/01 03:21:26;;;;;;;12.10;9.68;;;8.70;99.90;;;;;;7374840;19;20011;-70
2024/03/01 03:23:52;;;;;;;11.63;9.32;;;8.70;99.90;;;;;;7373702;19;20030;-70
2024/03/01 03:26:18;;;;;;;14.10;9.60;;;8.60;99.90;;;;;;7368886;19;20023;-69
2024/03/01 03:28:45;;;;;;;13.13;9.75;;;8.60;99.90;;;;;;7375679;19;20022;-70
2024/03/01 03:31:12;;;;;;;13.32;9.98;;;8.60;99.90;;;;;;7375373;19;20423;-70
2024/03/01 03:33:39;;;;;;;13.70;10.27;;;8.60;99.90;;;;;;7378278;19;20018;-70
2024/03/01 03:36:08;;;;;;;13.90;10.38;;;8.50;99.90;;;;;;7379852;19;20017;-70
2024/03/01 03:38:37;;;;;;;14.30;10.68;;;8.50;99.90;;;;;;7379115;19;20038;-70
2024/03/01 03:41:06;;;;;;;12.45;9.65;;;8.40;99.90;;;;;;7368969;19;20486;-70
2024/03/01 03:43:33;;;;;;;13.02;10.27;;;8.40;99.90;;;;;;7373007;19;20507;-70
2024/03/01 03:46:01;;;;;;;12.18;9.68;;;8.40;99.90;;;;;;7378068;19;20043;-70
2024/03/01 03:48:28;;;;;;;13.30;9.63;;;8.40;99.90;;;;;;7377315;19;20038;-70
2024/03/01 03:50:56;;;;;;;14.32;11.30;;;8.50;99.90;;;;;;7368315;19;20077;-72
2024/03/01 03:53:23;;;;;;;14.27;10.65;;;8.40;99.90;;;;;;7370507;19;20014;-70
2024/03/01 03:55:51;;;;;;;16.05;10.95;;;8.40;99.90;;;;;;7369587;19;20007;-70
2024/03/01 03:58:18;;;;;;;14.65;11.30;;;8.40;99.90;;;;;;7377349;19;20462;-70
2024/03/01 04:00:45;;;;;;;14.30;10.77;;;8.40;99.90;;;;;;7379051;19;20025;-70
2024/03/01 04:03:12;;;;;;;15.00;10.77;;;8.40;99.90;;;;;;7370219;19;20053;-70
2024/03/01 04:05:39;;;;;;;14.32;10.98;;;8.40;99.90;;;;;;7367654;19;20030;-70
2024/03/01 04:08:06;;;;;;;15.35;11.40;;;8.50;99.90;;;;;;7380923;19;20037;-70
2024/03/01 04:10:33;;;;;;;15.48;11.52;;;8.50;99.90;;;;;;7381766;19;20046;-70
2024/03/01 04:13:01;;;;;;;16.48;11.63;;;8.50;99.90;;;;;;7380832;19;20021;-71
2024/03/01 04:15:29;;;;;;;14.88;11.35;;;8.50;99.90;;;;;;7370443;19;20043;-68
2024/03/01 04:17:55;;;;;;;15.00;11.27;;;8.50;99.90;;;;;;7382078;19;20022;-69
2024/03/01 04:20:22;;;;;;;15.60;12.25;;;8.50;99.90;;;;;;7376956;19;20765;-69
2024/03/01 04:22:49;;;;;;;15.65;11.90;;;8.60;99.90;;;;;;7380981;19;20018;-70
2024/03/01 04:25:16;;;;;;;14.35;10.68;;;8.60;99.90;;;;;;7377595;19;20023;-70
2024/03/01 04:27:43;;;;;;;14.45;10.93;;;8.60;99.90;;;;;;7371036;19;20043;-70
2024/03/01 04:30:09;;;;;;;15.85;12.05;;;8.60;99.90;;;;;;7371619;19;20049;-70
2024/03/01 04:32:36;;;;;;;14.18;11.23;;;8.60;99.90;;;;;;7373014;19;20029;-70
2024/03/01 04:35:02;;;;;;;14.38;10.38;;;8.50;99.90;;;;;;7385422;19;20019;-70
2024/03/01 04:37:29;;;;;;;15.90;12.02;;;8.50;99.90;;;;;;7374600;19;20546;-70
2024/03/01 04:39:55;;;;;;;13.80;10.65;;;8.40;99.90;;;;;;7374245;19;20057;-70
2024/03/01 04:42:22;;;;;;;16.05;11.20;;;8.40;99.90;;;;;;7381178;19;20014;-70
2024/03/01 04:44:48;;;;;;;17.15;12.00;;;8.40;99.90;;;;;;7386909;19;20026;-70
2024/03/01 04:47:14;;;;;;;14.32;10.85;;;8.50;99.90;;;;;;7374773;19;20049;-70
2024/03/01 04:49:43;;;;;;;14.80;11.60;;;8.50;99.90;;;;;;7378763;19;20370;-70
2024/03/01 04:52:09;;;;;;;14.57;10.32;;;8.50;99.90;;;;;;7378047;19;20745;-70
2024/03/01 04:54:39;;;;;;;16.58;12.68;;;8.50;99.90;;;;;;7374659;19;20478;-70
2024/03/01 04:57:07;;;;;;;17.08;12.38;;;8.60;99.90;;;;;;7373104;19;20018;-70
2024/03/01 04:59:38;;;;;;;16.58;12.30;;;8.60;99.90;;;;;;7376611;19;20019;-70
2024/03/01 05:02:06;;;;;;;15.87;11.73;;;8.70;99.90;;;;;;7374448;19;20015;-69
2024/03/01 05:04:34;;;;;;;15.68;11.93;;;8.70;99.90;;;;;;7378876;19;20746;-70
2024/03/01 05:07:02;;;;;;;14.98;11.98;;;8.70;99.90;;;;;;7382554;19;20019;-70
2024/03/01 05:09:29;;;;;;;19.27;11.43;;;8.70;99.90;;;;;;7373903;19;20029;-69
2024/03/01 05:11:57;;;;;;;15.98;12.02;;;8.70;99.90;;;;;;7369605;19;20023;-70
2024/03/01 05:14:23;;;;;;;15.77;11.43;;;8.70;99.90;;;;;;7369323;19;20051;-69
2024/03/01 05:16:52;;;;;;;15.80;12.05;;;8.80;99.90;;;;;;7372912;19;20902;-69
2024/03/01 05:19:19;;;;;;;15.23;11.27;;;8.80;99.90;;;;;;7379615;19;20114;-72
2024/03/01 05:21:47;;;;;;;15.10;12.52;;;8.70;99.90;;;;;;7383448;19;20427;-69
2024/03/01 05:24:15;;;;;;;17.02;11.25;;;8.80;99.90;;;;;;7370957;19;20492;-69
2024/03/01 05:26:44;;;;;;;15.23;12.48;;;8.80;99.90;;;;;;7376363;19;20010;-69
2024/03/01 05:29:14;;;;;;;15.77;12.20;;;8.70;99.90;;;;;;7384444;19;20096;-71
2024/03/01 05:31:47;;;;;;;15.02;12.25;;;8.80;99.90;;;;;;7383726;19;20047;-72
2024/03/01 05:34:14;;;;;;;14.63;11.00;;;8.80;99.90;;;;;;7389183;19;20022;-72
2024/03/01 05:36:41;;;;;;;15.40;11.82;;;8.80;99.90;;;;;;7385990;19;20414;-71
2024/03/01 05:39:16;;;;;;;15.90;12.00;;;8.80;99.90;;;;;;7380944;19;20023;-71
2024/03/01 05:41:45;;;;;;;16.63;11.82;;;8.80;99.90;;;;;;7372016;19;20045;-70
2024/03/01 05:44:13;;;;;;;16.25;12.38;;;8.80;99.90;;;;;;7377098;19;20063;-70
2024/03/01 05:46:41;;;;;;;17.70;12.15;;;8.80;99.90;;;;;;7366406;19;20014;-70
2024/03/01 05:49:12;;;;;;;16.35;12.85;;;8.80;99.90;;;;;;7374186;19;20123;-70
2024/03/01 05:51:39;;;;;;;15.45;11.93;;;8.80;99.90;;;;;;7371499;19;20026;-72
2024/03/01 05:54:05;;;;;;;16.83;12.73;;;8.80;99.90;;;;;;7383615;19;20018;-70
2024/03/01 05:56:32;;;;;;;17.27;12.57;;;8.80;99.90;;;;;;7381109;19;20074;-71
2024/03/01 05:58:59;;;;;;;19.33;13.80;;;8.80;99.90;;;;;;7388852;19;20109;-71
2024/03/01 06:01:26;;;;;;;16.45;13.13;;;8.80;99.90;;;;;;7379423;19;20074;-71
2024/03/01 06:03:53;;;;;;;15.38;12.40;;;8.80;99.90;;;;;;7385944;19;20082;-72
2024/03/01 06:06:23;;;;;;;16.63;12.82;;;8.80;99.90;;;;;;7385835;19;20022;-71
2024/03/01 06:08:52;;;;;;;17.15;13.60;;;8.70;99.90;;;;;;7382888;19;20035;-71
2024/03/01 06:11:18;;;;;;;17.05;13.38;;;8.80;99.90;;;;;;7384567;19;20100;-71
2024/03/01 06:13:45;;;;;;;17.67;14.10;;;8.70;99.90;;;;;;7377627;19;20396;-70
2024/03/01 06:16:11;;;;;;;15.50;12.48;;;8.70;99.90;;;;;;7381370;19;20039;-70
2024/03/01 06:18:38;;;;;;;18.02;15.15;;;8.70;99.90;;;;;;7378433;19;20024;-71
2024/03/01 06:21:07;;;;;;;18.30;13.00;;;8.70;99.90;;;;;;7376588;19;20015;-70
2024/03/01 06:23:34;;;;;;;16.95;14.05;;;8.70;99.90;;;;;;7370336;19;20791;-70
2024/03/01 06:26:02;;;;;;;17.67;13.57;;;8.70;99.90;;;;;;7367128;19;20022;-68
2024/03/01 06:28:29;;;;;;;18.10;13.73;;;8.70;99.90;;;;;;7363898;19;20019;-68
2024/03/01 06:30:56;;;;;;;18.13;13.45;;;8.70;99.90;;;;;;7374435;19;20049;-68
2024/03/01 06:33:23;;;;;;;19.15;14.88;;;8.70;99.90;;;;;;7374750;19;20755;-70
2024/03/01 06:35:51;;;;;;;19.15;14.40;;;8.60;99.90;;;;;;7375940;19;20022;-69
2024/03/01 06:38:18;;;;;;;16.13;13.88;;;8.60;99.90;;;;;;7363243;19;20584;-70
2024/03/01 06:40:45;;;;;;;16.88;13.75;;;8.60;99.90;;;;;;7359946;19;20014;-70
2024/03/01 06:43:13;;;;;;;17.40;14.00;;;8.60;99.90;;;;;;7375241;19;20019;-69
2024/03/01 06:45:41;;;;;;;15.80;13.07;;;8.60;99.90;;;;;;7369386;19;20354;-74
2024/03/01 06:48:08;;;;;;;17.67;13.32;;;8.60;99.90;;;;;;7369991;19;20010;-69
2024/03/01 06:50:35;;;;;;;16.42;14.27;;;8.50;99.90;;;;;;7375172;19;20022;-69
2024/03/01 06:53:03;;;;;;;17.02;13.68;;;8.60;99.90;;;;;;7372427;19;20034;-69
2024/03/01 06:55:32;;;;;;;16.83;14.73;;;8.60;99.90;;;;;;7373819;19;20014;-69
2024/03/01 06:58:00;;;;;;;17.95;14.05;;;8.60;99.90;;;;;;7370760;19;20089;-69
2024/03/01 07:00:28;;;;;;;18.40;14.57;;;8.60;99.90;;;;;;7363252;19;20051;-69
2024/03/01 07:02:58;;;;;;;15.50;12.57;;;8.50;99.90;;;;;;7371742;19;20023;-68
2024/03/01 07:05:25;;;;;;;15.60;12.05;;;8.50;99.90;;;;;;7373799;19;20053;-65
2024/03/01 07:07:52;;;;;;;13.98;10.07;;;8.40;99.90;;;;;;7370269;19;20029;-65
2024/03/01 07:10:21;;;;;;;9.02;7.53;;;8.40;99.90;;;;;;7373122;19;20707;-68
2024/03/01 07:12:49;;;;;;;7.93;5.72;;;8.30;99.90;;;;;;7374543;19;20015;-68
2024/03/01 07:15:16;;;;;;;6.25;4.07;;;8.20;99.90;;;;;;7375026;19;20045;-69
2024/03/01 07:17:46;;;;;;;5.47;3.35;;;8.10;99.90;;;;;;7377089;19;20029;-68
2024/03/01 07:20:13;;;;;;;4.22;2.55;;;8.00;99.90;;;;;;7369082;19;20022;-70
2024/03/01 07:22:41;;;;;;;4.72;2.75;;;7.90;99.90;;;;;;7367783;19;20558;-69
2024/03/01 07:25:08;;;;;;;2.75;1.52;;;7.80;99.90;;;;;;7372031;19;20026;-69
2024/03/01 07:27:35;;;;;;;4.03;1.83;;;7.70;99.90;;;;;;7365365;19;20019;-68
2024/03/01 07:30:04;;;;;;;2.40;1.65;;;7.50;99.90;;;;;;7365126;19;20397;-68
2024/03/01 07:32:35;;;;;;;3.30;1.60;;;7.40;99.90;;;;;;7368741;19;21124;-68
2024/03/01 07:35:05;;;;;;;4.70;1.23;;;7.40;99.90;;;;;;7365115;19;20014;-69
2024/03/01 07:37:33;;;;;;;3.10;1.20;;;7.30;99.90;;;;;;7372477;19;20029;-74
2024/03/01 07:40:00;;;;;;;2.13;1.40;;;7.30;99.90;;;;;;7367199;19;20027;-68
2024/03/01 07:42:29;;;;;;;4.03;1.85;;;7.30;99.90;;;;;;7375961;19;20482;-69
2024/03/01 07:44:56;;;;;;;3.08;1.38;;;7.20;99.90;;;;;;7370396;19;20018;-69
2024/03/01 07:47:29;;;;;;;1.98;1.30;;;7.20;99.90;;;;;;7371277;19;20055;-68
2024/03/01 07:49:57;;;;;;;4.28;1.73;;;7.10;99.90;;;;;;7364765;19;20014;-68
2024/03/01 07:52:28;;;;;;;4.55;1.30;;;7.10;99.90;;;;;;7368293;19;20749;-69
2024/03/01 07:54:56;;;;;;;4.15;1.77;;;7.10;99.90;;;;;;7368600;19;20018;-68
2024/03/01 07:57:23;;;;;;;4.63;2.45;;;7.30;99.90;;;;;;7368420;19;20019;-68
2024/03/01 07:59:52;;;;;;;1.77;1.30;;;7.40;99.90;;;;;;7370875;19;20495;-66
2024/03/01 08:02:19;;;;;;;3.67;1.40;;;7.40;99.90;;;;;;7369049;19;20014;-69
2024/03/01 08:04:47;;;;;;;4.65;1.55;;;7.50;99.90;;;;;;7367769;19;20021;-73
2024/03/01 08:07:15;;;;;;;3.67;1.70;;;7.50;99.90;;;;;;7365140;19;20570;-73
2024/03/01 08:09:45;;;;;;;2.17;1.40;;;7.50;99.90;;;;;;7362772;19;20949;-70
2024/03/01 08:12:18;;;;;;;3.45;1.60;;;7.60;99.90;;;;;;7365468;19;20017;-72
2024/03/01 08:14:45;;;;;;;4.72;2.13;;;7.70;99.90;;;;;;7368166;19;20660;-72
2024/03/01 08:17:13;;;;;;;3.40;1.48;;;7.70;99.90;;;;;;7370158;19;20090;-73
2024/03/01 08:19:45;;;;;;;5.25;1.60;;;7.70;99.90;;;;;;7368988;19;20943;-72
2024/03/01 08:22:17;;;;;;;5.30;1.70;;;7.80;99.90;;;;;;7367921;19;20018;-72
2024/03/01 08:24:48;;;;;;;;;;;7.80;99.90;;;;;;7369431;19;20022;-72
2024/03/01 08:27:28;;;;;;;4.67;1.70;;;7.70;99.90;;;;;;7361926;19;20729;-72
2024/03/01 08:29:57;;;;;;;4.65;1.90;;;7.80;99.90;;;;;;7368074;19;20014;-71
2024/03/01 08:32:48;;;;;;;3.38;1.55;;;7.80;99.90;;;;;;7361270;19;20642;-71
2024/03/01 08:35:18;;;;;;;4.00;1.80;;;7.80;99.90;;;;;;7373106;19;20022;-71
2024/03/01 08:37:48;;;;;;;7.25;1.88;;;7.90;99.90;;;;;;7374581;19;20226;-73
2024/03/01 08:40:54;;;;;;;5.35;2.20;;;7.90;99.90;;;;;;7370861;19;20010;-73
2024/03/01 08:43:24;;;;;;;4.72;2.47;;;7.90;99.90;;;;;;7375464;19;20043;-74
2024/03/01 08:45:58;;;;;;;6.03;2.78;;;7.90;99.90;;;;;;7372203;19;20018;-73
2024/03/01 08:48:25;;;;;;;5.45;2.80;;;7.80;99.90;;;;;;7372244;19;20481;-72
2024/03/01 08:50:54;;;;;;;5.53;3.10;;;7.80;99.90;;;;;;7370352;19;20077;-73
2024/03/01 08:53:40;;;;;;;4.68;3.00;;;7.90;99.90;;;;;;7372297;19;20010;-72
2024/03/01 08:56:18;;;;;;;8.75;3.03;;;7.90;99.90;;;;;;7367179;19;20018;-73
2024/03/01 08:58:49;;;;;;;5.55;3.35;;;8.00;99.90;;;;;;7364931;19;20614;-72
2024/03/01 09:01:28;;;;;;;4.90;3.20;;;8.00;99.90;;;;;;7364862;19;20038;-73
2024/03/01 09:04:14;;;;;;;6.80;4.07;;;8.00;99.90;;;;;;7364514;19;20061;-73
2024/03/01 09:06:42;;;;;;;6.93;3.03;;;8.00;99.90;;;;;;7367378;19;20086;-72
2024/03/01 09:09:23;;;;;;;5.97;3.13;;;8.10;99.90;;;;;;7363118;19;20082;-73
2024/03/01 09:11:53;;;;;;;7.13;3.72;;;8.10;99.90;;;;;;7367350;19;20029;-73
2024/03/01 09:14:29;;;;;;;7.65;4.10;;;8.20;99.90;;;;;;7361097;19;20017;-73
2024/03/01 09:17:01;;;;;;;5.50;3.83;;;8.10;99.90;;;;;;7366735;19;20017;-73
2024/03/01 09:19:37;;;;;;;;;;;8.10;99.90;;;;;;7362713;19;20090;-74
2024/03/01 09:22:05;;;;;;;7.88;3.97;;;8.10;99.90;;;;;;7376264;19;19965;-73
2024/03/01 09:24:38;;;;;;;6.03;3.90;;;8.30;99.90;;;;;;7370800;19;20390;-73
2024/03/01 09:27:32;;;;;;;6.80;4.65;;;8.40;99.90;;;;;;7375969;19;20018;-65
2024/03/01 09:30:08;;;;;;;5.60;3.63;;;8.50;99.90;;;;;;7374536;19;20646;-68
2024/03/01 09:32:35;;;;;;;5.95;3.85;;;8.70;99.90;;;;;;7375090;19;20029;-68
2024/03/01 09:35:03;;;;;;;6.68;3.58;;;8.80;99.90;;;;;;7374055;19;20070;-68
2024/03/01 09:37:37;;;;;;;5.75;3.47;;;8.90;99.90;;;;;;7372442;19;20105;-68
2024/03/01 09:40:46;;;;;;;4.10;3.00;;;8.90;99.90;;;;;;7366585;19;20074;-69
2024/03/01 09:43:44;;;;;;;6.25;3.35;;;8.80;99.90;;;;;;7373804;19;20644;-64
2024/03/01 09:46:30;;;;;;;4.05;3.13;;;8.70;99.90;;;;;;7378107;19;20021;-69
2024/03/01 09:49:13;;;;;;;6.68;3.28;;;8.60;99.90;;;;;;7370311;19;20014;-68
2024/03/01 09:52:29;;;;;;;7.50;4.00;;;8.50;99.90;;;;;;7369153;19;20019;-72
2024/03/01 09:55:16;;;;;;;4.35;2.38;;;8.50;99.90;;;;;;7373618;19;20031;-72
2024/03/01 09:58:28;;;;;;;6.82;3.75;;;8.30;99.90;;;;;;7372269;19;20018;-73
2024/03/01 10:01:01;;;;;;;5.78;3.50;;;8.30;99.90;;;;;;7370678;19;20109;-73
2024/03/01 10:03:40;;;;;;;5.57;3.60;;;8.20;99.90;;;;;;7367382;19;20015;-73
2024/03/01 10:06:23;;;;;;;9.25;3.35;;;8.30;99.90;;;;;;7369110;19;20018;-73
2024/03/01 10:08:55;;;;;;;5.70;3.55;;;8.30;99.90;;;;;;7370909;19;20420;-72
2024/03/01 10:11:45;;;;;;;6.63;3.80;;;8.30;99.90;;;;;;7373455;19;20475;-72
2024/03/01 10:14:47;;;;;;;5.40;3.53;;;8.40;99.90;;;;;;7372249;19;20704;-73
2024/03/01 10:17:39;;;;;;;4.70;3.10;;;8.40;99.90;;;;;;7374285;19;20018;-68
2024/03/01 10:20:25;;;;;;;;;;;8.50;99.90;;;;;;7369327;19;20024;-74
2024/03/01 10:23:41;;;;;;;5.65;3.53;;;8.50;99.90;;;;;;7372590;19;19938;-74
2024/03/01 10:26:27;;;;;;;5.63;3.63;;;8.70;99.90;;;;;;7372057;19;20022;-73
2024/03/01 10:29:18;;;;;;;5.93;3.65;;;8.90;99.90;;;;;;7374586;19;20015;-73
2024/03/01 10:32:03;;;;;;;7.88;3.92;;;9.00;99.90;;;;;;7368357;19;20426;-73
2024/03/01 10:34:51;;;;;;;6.88;4.30;;;9.00;99.90;;;;;;7365022;19;20019;-73
2024/03/01 10:37:29;;;;;;;6.93;4.78;;;8.90;99.90;;;;;;7369392;19;20038;-75
2024/03/01 10:40:07;;;;;;;8.35;5.20;;;8.70;99.90;;;;;;7369558;19;20022;-74
2024/03/01 10:42:36;;;;;;;8.52;5.00;;;8.80;99.90;;;;;;7369294;19;20379;-68
2024/03/01 10:45:08;;;;;;;6.25;4.93;;;9.10;99.90;;;;;;7371924;19;20649;-68
2024/03/01 10:47:36;;;;;;;8.55;4.85;;;10.00;99.90;;;;;;7372885;19;20015;-74
2024/03/01 10:50:06;;;;;;;6.18;4.95;;;9.90;99.90;;;;;;7368927;19;20022;-74
2024/03/01 10:52:38;;;;;;;5.85;4.22;;;9.80;99.90;;;;;;7373432;19;20627;-68
2024/03/01 10:55:12;;;;;;;;;;;9.80;99.90;;;;;;7371404;19;20021;-74
2024/03/01 10:57:59;;;;;;;5.30;3.80;;;9.60;99.90;;;;;;7371254;19;19954;-69
2024/03/01 11:00:28;;;;;;;5.90;3.95;;;9.60;99.90;;;;;;7367571;19;20069;-69
2024/03/01 11:03:26;;;;;;;5.20;3.60;;;9.70;99.90;;;;;;7370958;19;20014;-69
2024/03/01 11:06:07;;;;;;;6.03;3.55;;;9.70;99.90;;;;;;7363989;19;20043;-74
2024/03/01 11:08:51;;;;;;;6.40;3.53;;;10.00;99.90;;;;;;7368733;19;20026;-69
2024/03/01 11:11:27;;;;;;;6.43;3.47;;;10.30;99.90;;;;;;7368724;19;20283;-69
2024/03/01 11:13:56;;;;;;;6.18;3.65;;;10.70;99.90;;;;;;7372990;19;20046;-69
2024/03/01 11:16:31;;;;;;;6.43;3.10;;;11.40;99.90;;;;;;7364472;19;20836;-69
2024/03/01 11:19:06;;;;;;;5.13;2.85;;;12.40;99.90;;;;;;7372096;19;20042;-69
2024/03/01 11:21:37;;;;;;;5.78;3.03;;;12.10;99.90;;;;;;7368441;19;20022;-69
2024/03/01 11:24:17;;;;;;;5.05;3.10;;;11.60;99.90;;;;;;7373769;19;20383;-73
2024/03/01 11:26:49;;;;;;;5.18;3.25;;;11.30;99.90;;;;;;7371086;19;20015;-73
2024/03/01 11:29:28;;;;;;;6.65;2.65;;;12.00;99.90;;;;;;7375446;19;20036;-72
2024/03/01 11:32:06;;;;;;;8.00;2.90;;;12.60;99.90;;;;;;7375975;19;20018;-72
2024/03/01 11:34:56;;;;;;;6.53;2.30;;;13.10;99.90;;;;;;7370830;19;20015;-72
2024/03/01 11:37:32;;;;;;;3.58;2.40;;;13.00;99.90;;;;;;7370390;19;20715;-70
2024/03/01 11:40:11;;;;;;;6.55;2.72;;;13.80;99.90;;;;;;7371985;19;20047;-72
2024/03/01 11:42:51;;;;;;;5.63;3.05;;;13.10;99.90;;;;;;7371441;19;20456;-72
2024/03/01 11:45:55;;;;;;;5.47;2.42;;;13.40;99.90;;;;;;7368854;19;20021;-68
2024/03/01 11:49:07;;;;;;;6.18;2.88;;;13.30;99.90;;;;;;7371880;19;20086;-69
2024/03/01 11:51:47;;;;;;;4.20;2.42;;;14.10;99.90;;;;;;7372786;19;20034;-69
2024/03/01 11:54:23;;;;;;;6.82;2.97;;;14.70;99.90;;;;;;7371591;19;20025;-69
2024/03/01 11:57:28;;;;;;;5.90;3.33;;;15.20;99.90;;;;;;7373785;19;20910;-68
2024/03/01 12:00:11;;;;;;;5.40;2.60;;;15.70;99.90;;;;;;7371616;19;20019;-69
2024/03/01 12:02:57;;;;;;;4.10;2.45;;;15.40;99.90;;;;;;7365705;19;20078;-68
2024/03/01 12:05:43;;;;;;;5.88;3.05;;;15.60;99.90;;;;;;7368025;19;20022;-68
2024/03/01 12:08:37;;;;;;;4.00;2.90;;;15.50;99.90;;;;;;7373511;19;20010;-68
2024/03/01 12:11:26;;;;;;;6.03;3.25;;;16.20;99.90;;;;;;7368679;19;20778;-68
2024/03/01 12:13:57;;;;;;;5.75;3.80;;;15.50;99.90;;;;;;7370608;19;20029;-68
2024/03/01 12:16:43;;;;;;;5.78;3.38;;;15.70;99.90;;;;;;7371209;19;20121;-69
2024/03/01 12:19:17;;;;;;;7.38;3.50;;;16.00;99.90;;;;;;7368213;19;20014;-68
2024/03/01 12:21:56;;;;;;;6.45;3.47;;;16.10;99.90;;;;;;7369596;19;20012;-68
2024/03/01 12:24:30;;;;;;;4.90;3.33;;;16.20;98.50;;;;;;7363451;19;20011;-69
2024/03/01 12:27:14;;;;;;;6.53;3.42;;;16.50;99.90;;;;;;7367431;19;20637;-68
2024/03/01 12:30:13;;;;;;;7.20;3.60;;;16.80;99.00;;;;;;7366540;19;20021;-69
2024/03/01 12:33:05;;;;;;;5.22;3.33;;;16.50;96.40;;;;;;7364854;19;20074;-68
2024/03/01 12:36:02;;;;;;;8.65;4.25;;;16.80;97.40;;;;;;7369008;19;20111;-69
2024/03/01 12:38:41;;;;;;;8.57;4.28;;;17.20;97.40;;;;;;7371203;19;20022;-69
2024/03/01 12:41:12;;;;;;;6.47;4.13;;;17.40;97.50;;;;;;7367787;19;20526;-68
2024/03/01 12:43:40;;;;;;;5.80;3.92;;;17.20;96.80;;;;;;7363832;19;20154;-72
2024/03/01 12:46:32;;;;;;;6.35;4.13;;;17.10;97.00;;;;;;7365664;19;20022;-70
2024/03/01 12:49:06;;;;;;;9.60;4.15;;;17.20;95.90;;;;;;7370410;19;20014;-68
2024/03/01 12:51:47;;;;;;;7.47;4.45;;;17.30;96.70;;;;;;7365388;19;20041;-69
2024/03/01 12:54:22;;;;;;;8.23;4.43;;;17.50;96.90;;;;;;7370717;19;20025;-70
2024/03/01 12:57:29;;;;;;;8.27;4.28;;;17.60;96.20;;;;;;7375086;19;20015;-69
2024/03/01 13:00:13;;;;;;;5.50;3.88;;;17.70;95.00;;;;;;7377367;19;20857;-69
2024/03/01 13:03:27;;;;;;;4.90;3.95;;;17.80;95.00;;;;;;7361244;19;20038;-69
2024/03/01 13:05:54;;;;;;;5.75;4.22;;;17.50;95.50;;;;;;7371683;19;20014;-71
2024/03/01 13:08:30;;;;;;;7.47;4.60;;;17.30;95.70;;;;;;7373877;19;20049;-69
2024/03/01 13:11:00;;;;;;;7.00;4.82;;;17.50;95.00;;;;;;7371964;19;20018;-69
2024/03/01 13:13:33;;;;;;;5.60;4.32;;;17.30;95.10;;;;;;7375693;19;20106;-70
2024/03/01 13:16:18;;;;;;;6.75;4.18;;;17.20;95.10;;;;;;7375464;19;20040;-70
2024/03/01 13:19:25;;;;;;;6.20;4.15;;;17.30;94.80;;;;;;7375460;19;20114;-71